sensor_id;sensor_type;location;lat;lon;timestamp;temperature;humidity
29813;DHT22;16707;48.106;11.548;2022-09-30T00:02:06;8.80;99.90
29813;DHT22;16707;48.106;11.548;2022-09-30T00:04:34;8.70;99.90
29813;DHT22;16707;48.106;11.548;2022-09-30T00:07:08;8.70;99.90
29813;DHT22;16707;48.106;11.548;2022-09-30T00:09:35;8.80;99.90
29813;DHT22;16707;48.106;11.548;2022-09-30T00:12:04;8.80;99.90
29813;DHT22;16707;48.106;11.548;2022-09-30T00:14:37;8.90;99.90
29813;DHT22;16707;48.106;11.548;2022-09-30T00:17:08;9.00;99.90
29813;DHT22;16707;48.106;11.548;2022-09-30T00:19:38;9.10;99.90
29813;DHT22;16707;48.106;11.548;2022-09-30T00:22:10;9.20;99.90
29813;DHT22;16707;48.106;11.548;2022-09-30T00:24:45;9.20;99.90
29813;DHT22;16707;48.106;11.548;2022-09-30T00:27:14;9.10;99.90
29813;DHT22;16707;48.106;11.548;2022-09-30T00:29:43;9.00;99.90
29813;DHT22;16707;48.106;11.548;2022-09-30T00:32:13;9.00;99.90
29813;DHT22;16707;48.106;11.548;2022-09-30T00:34:41;8.90;99.90
29813;DHT22;16707;48.106;11.548;2022-09-30T00:37:08;8.90;99.90
29813;DHT22;16707;48.106;11.548;2022-09-30T00:39:40;8.90;99.90
29813;DHT22;16707;48.106;11.548;2022-09-30T00:42:10;8.90;99.90
29813;DHT22;16707;48.106;11.548;2022-09-30T00:44:50;8.90;99.90
29813;DHT22;16707;48.106;11.548;2022-09-30T00:47:37;9.00;99.90
29813;DHT22;16707;48.106;11.548;2022-09-30T00:50:16;8.90;99.90
29813;DHT22;16707;48.106;11.548;2022-09-30T00:52:51;9.00;99.90
29813;DHT22;16707;48.106;11.548;2022-09-30T00:55:29;9.00;99.90
29813;DHT22;16707;48.106;11.548;2022-09-30T00:57:58;9.00;99.90
29813;DHT22;16707;48.106;11.548;2022-09-30T01:00:32;8.90;99.90
29813;DHT22;16707;48.106;11.548;2022-09-30T01:03:03;8.80;99.90
29813;DHT22;16707;48.106;11.548;2022-09-30T01:05:35;8.70;99.90
29813;DHT22;16707;48.106;11.548;2022-09-30T01:08:04;8.60;99.90
29813;DHT22;16707;48.106;11.548;2022-09-30T01:10:37;8.60;99.90
29813;DHT22;16707;48.106;11.548;2022-09-30T01:13:17;8.70;99.90
29813;DHT22;16707;48.106;11.548;2022-09-30T01:19:04;8.70;99.90
29813;DHT22;16707;48.106;11.548;2022-09-30T01:21:58;8.70;99.90
29813;DHT22;16707;48.106;11.548;2022-09-30T01:31:20;8.70;99.90
29813;DHT22;16707;48.106;11.548;2022-09-30T01:34:08;8.70;99.90
29813;DHT22;16707;48.106;11.548;2022-09-30T01:36:50;8.60;99.90
29813;DHT22;16707;48.106;11.548;2022-09-30T01:39:27;8.60;99.90
29813;DHT22;16707;48.106;11.548;2022-09-30T01:42:08;8.50;99.90
29813;DHT22;16707;48.106;11.548;2022-09-30T01:44:44;8.50;99.90
29813;DHT22;16707;48.106;11.548;2022-09-30T01:47:24;8.50;99.90
29813;DHT22;16707;48.106;11.548;2022-09-30T01:49:56;8.50;99.90
29813;DHT22;16707;48.106;11.548;2022-09-30T01:52:33;8.50;99.90
29813;DHT22;16707;48.106;11.548;2022-09-30T01:55:12;8.50;99.90
29813;DHT22;16707;48.106;11.548;2022-09-30T01:57:45;8.60;99.90
29813;DHT22;16707;48.106;11.548;2022-09-30T02:00:19;8.60;99.90
29813;DHT22;16707;48.106;11.548;2022-09-30T02:02:52;8.60;99.90
29813;DHT22;16707;48.106;11.548;2022-09-30T02:05:23;8.60;99.90
29813;DHT22;16707;48.106;11.548;2022-09-30T02:08:01;8.60;99.90
29813;DHT22;16707;48.106;11.548;2022-09-30T02:10:37;8.50;99.90
29813;DHT22;16707;48.106;11.548;2022-09-30T02:13:20;8.60;99.90
29813;DHT22;16707;48.106;11.548;2022-09-30T02:15:59;8.60;99.90
29813;DHT22;16707;48.106;11.548;2022-09-30T02:18:42;8.60;99.90
29813;DHT22;16707;48.106;11.548;2022-09-30T02:21:21;8.60;99.90
29813;DHT22;16707;48.106;11.548;2022-09-30T02:23:52;8.60;99.90
29813;DHT22;16707;48.106;11.548;2022-09-30T02:26:23;8.60;99.90
29813;DHT22;16707;48.106;11.548;2022-09-30T02:28:55;8.60;99.90
29813;DHT22;16707;48.106;11.548;2022-09-30T02:31:31;8.60;99.90
29813;DHT22;16707;48.106;11.548;2022-09-30T02:34:04;8.60;99.90
29813;DHT22;16707;48.106;11.548;2022-09-30T02:36:36;8.60;99.90
29813;DHT22;16707;48.106;11.548;2022-09-30T02:39:21;8.70;99.90
29813;DHT22;16707;48.106;11.548;2022-09-30T02:41:58;8.80;99.90
29813;DHT22;16707;48.106;11.548;2022-09-30T02:44:28;8.70;99.90
29813;DHT22;16707;48.106;11.548;2022-09-30T02:47:02;8.60;99.90
29813;DHT22;16707;48.106;11.548;2022-09-30T02:49:42;8.50;99.90
29813;DHT22;16707;48.106;11.548;2022-09-30T02:52:23;8.40;99.90
29813;DHT22;16707;48.106;11.548;2022-09-30T02:55:13;8.20;99.90
29813;DHT22;16707;48.106;11.548;2022-09-30T02:57:47;8.10;99.90
29813;DHT22;16707;48.106;11.548;2022-09-30T03:00:31;8.00;99.90
29813;DHT22;16707;48.106;11.548;2022-09-30T03:03:10;7.90;99.90
29813;DHT22;16707;48.106;11.548;2022-09-30T03:05:44;7.90;99.90
29813;DHT22;16707;48.106;11.548;2022-09-30T03:08:11;7.90;99.90
29813;DHT22;16707;48.106;11.548;2022-09-30T03:10:44;7.80;99.90
29813;DHT22;16707;48.106;11.548;2022-09-30T03:13:54;7.70;99.90
29813;DHT22;16707;48.106;11.548;2022-09-30T03:16:35;7.60;99.90
29813;DHT22;16707;48.106;11.548;2022-09-30T03:19:23;7.80;99.90
29813;DHT22;16707;48.106;11.548;2022-09-30T03:22:16;7.90;99.90
29813;DHT22;16707;48.106;11.548;2022-09-30T03:25:08;7.90;99.90
29813;DHT22;16707;48.106;11.548;2022-09-30T03:31:37;7.90;99.90
29813;DHT22;16707;48.106;11.548;2022-09-30T03:34:13;7.90;99.90
29813;DHT22;16707;48.106;11.548;2022-09-30T03:36:49;7.90;99.90
29813;DHT22;16707;48.106;11.548;2022-09-30T03:39:25;7.80;99.90
29813;DHT22;16707;48.106;11.548;2022-09-30T03:42:06;7.90;99.90
29813;DHT22;16707;48.106;11.548;2022-09-30T03:44:56;7.90;99.90
29813;DHT22;16707;48.106;11.548;2022-09-30T03:47:30;8.00;99.90
29813;DHT22;16707;48.106;11.548;2022-09-30T03:50:03;8.00;99.90
29813;DHT22;16707;48.106;11.548;2022-09-30T03:52:35;8.00;99.90
29813;DHT22;16707;48.106;11.548;2022-09-30T03:55:08;8.00;99.90
29813;DHT22;16707;48.106;11.548;2022-09-30T03:57:37;8.00;99.90
29813;DHT22;16707;48.106;11.548;2022-09-30T04:00:11;8.10;99.90
29813;DHT22;16707;48.106;11.548;2022-09-30T04:02:38;8.10;99.90
29813;DHT22;16707;48.106;11.548;2022-09-30T04:05:07;8.20;99.90
29813;DHT22;16707;48.106;11.548;2022-09-30T04:07:37;8.10;99.90
29813;DHT22;16707;48.106;11.548;2022-09-30T04:10:07;8.00;99.90
29813;DHT22;16707;48.106;11.548;2022-09-30T04:12:39;8.00;99.90
29813;DHT22;16707;48.106;11.548;2022-09-30T04:15:07;8.10;99.90
29813;DHT22;16707;48.106;11.548;2022-09-30T04:17:35;8.10;99.90
29813;DHT22;16707;48.106;11.548;2022-09-30T04:20:02;8.10;99.90
29813;DHT22;16707;48.106;11.548;2022-09-30T04:22:31;8.10;99.90
29813;DHT22;16707;48.106;11.548;2022-09-30T04:25:02;8.10;99.90
29813;DHT22;16707;48.106;11.548;2022-09-30T04:27:35;8.10;99.90
29813;DHT22;16707;48.106;11.548;2022-09-30T04:30:03;8.10;99.90
29813;DHT22;16707;48.106;11.548;2022-09-30T04:32:33;8.00;99.90
29813;DHT22;16707;48.106;11.548;2022-09-30T04:35:00;7.90;99.90
29813;DHT22;16707;48.106;11.548;2022-09-30T04:37:28;7.80;99.90
29813;DHT22;16707;48.106;11.548;2022-09-30T04:39:55;7.80;99.90
29813;DHT22;16707;48.106;11.548;2022-09-30T04:42:33;7.80;99.90
29813;DHT22;16707;48.106;11.548;2022-09-30T04:45:00;7.80;99.90
29813;DHT22;16707;48.106;11.548;2022-09-30T04:47:28;7.80;99.90
29813;DHT22;16707;48.106;11.548;2022-09-30T04:49:56;7.70;99.90
29813;DHT22;16707;48.106;11.548;2022-09-30T04:52:24;7.70;99.90
29813;DHT22;16707;48.106;11.548;2022-09-30T04:54:54;7.70;99.90
29813;DHT22;16707;48.106;11.548;2022-09-30T04:57:23;7.60;99.90
29813;DHT22;16707;48.106;11.548;2022-09-30T04:59:54;7.70;99.90
29813;DHT22;16707;48.106;11.548;2022-09-30T05:02:24;7.70;99.90
29813;DHT22;16707;48.106;11.548;2022-09-30T05:04:55;7.60;99.90
29813;DHT22;16707;48.106;11.548;2022-09-30T05:07:25;7.70;99.90
29813;DHT22;16707;48.106;11.548;2022-09-30T05:09:51;7.70;99.90
29813;DHT22;16707;48.106;11.548;2022-09-30T05:12:18;7.70;99.90
29813;DHT22;16707;48.106;11.548;2022-09-30T05:14:45;7.70;99.90
29813;DHT22;16707;48.106;11.548;2022-09-30T05:17:14;7.60;99.90
29813;DHT22;16707;48.106;11.548;2022-09-30T05:19:41;7.50;99.90
29813;DHT22;16707;48.106;11.548;2022-09-30T05:22:08;7.50;99.90
29813;DHT22;16707;48.106;11.548;2022-09-30T05:24:35;7.50;99.90
29813;DHT22;16707;48.106;11.548;2022-09-30T05:27:02;7.50;99.90
29813;DHT22;16707;48.106;11.548;2022-09-30T05:29:35;7.50;99.90
29813;DHT22;16707;48.106;11.548;2022-09-30T05:32:02;7.60;99.90
29813;DHT22;16707;48.106;11.548;2022-09-30T05:34:31;7.70;99.90
29813;DHT22;16707;48.106;11.548;2022-09-30T05:36:58;7.70;99.90
29813;DHT22;16707;48.106;11.548;2022-09-30T05:39:26;7.90;99.90
29813;DHT22;16707;48.106;11.548;2022-09-30T05:41:56;8.00;99.90
29813;DHT22;16707;48.106;11.548;2022-09-30T05:44:24;8.10;99.90
29813;DHT22;16707;48.106;11.548;2022-09-30T05:46:51;8.30;99.90
29813;DHT22;16707;48.106;11.548;2022-09-30T05:49:18;8.40;99.90
29813;DHT22;16707;48.106;11.548;2022-09-30T05:51:47;8.60;99.90
29813;DHT22;16707;48.106;11.548;2022-09-30T05:54:17;8.70;99.90
29813;DHT22;16707;48.106;11.548;2022-09-30T05:56:49;8.70;99.90
29813;DHT22;16707;48.106;11.548;2022-09-30T05:59:20;8.70;99.90
29813;DHT22;16707;48.106;11.548;2022-09-30T06:01:47;8.80;99.90
29813;DHT22;16707;48.106;11.548;2022-09-30T06:04:18;9.10;99.90
29813;DHT22;16707;48.106;11.548;2022-09-30T06:06:47;9.50;99.90
29813;DHT22;16707;48.106;11.548;2022-09-30T06:09:14;9.70;99.90
29813;DHT22;16707;48.106;11.548;2022-09-30T06:11:47;9.90;99.90
29813;DHT22;16707;48.106;11.548;2022-09-30T06:14:15;10.00;99.90
29813;DHT22;16707;48.106;11.548;2022-09-30T06:16:44;9.90;99.90
29813;DHT22;16707;48.106;11.548;2022-09-30T06:19:11;10.00;99.90
29813;DHT22;16707;48.106;11.548;2022-09-30T06:21:39;10.10;99.90
29813;DHT22;16707;48.106;11.548;2022-09-30T06:24:09;10.20;99.90
29813;DHT22;16707;48.106;11.548;2022-09-30T06:26:42;10.40;99.90
29813;DHT22;16707;48.106;11.548;2022-09-30T06:29:09;10.70;99.90
29813;DHT22;16707;48.106;11.548;2022-09-30T06:31:42;10.70;99.90
29813;DHT22;16707;48.106;11.548;2022-09-30T06:34:12;10.70;99.90
29813;DHT22;16707;48.106;11.548;2022-09-30T06:36:46;10.90;99.90
29813;DHT22;16707;48.106;11.548;2022-09-30T06:39:15;11.10;99.90
29813;DHT22;16707;48.106;11.548;2022-09-30T06:41:42;11.50;99.90
29813;DHT22;16707;48.106;11.548;2022-09-30T06:44:09;11.60;99.90
29813;DHT22;16707;48.106;11.548;2022-09-30T06:46:36;11.80;99.90
29813;DHT22;16707;48.106;11.548;2022-09-30T06:49:03;12.00;99.90
29813;DHT22;16707;48.106;11.548;2022-09-30T06:51:35;11.90;99.90
29813;DHT22;16707;48.106;11.548;2022-09-30T06:54:02;11.70;99.90
29813;DHT22;16707;48.106;11.548;2022-09-30T06:56:31;11.90;99.90
29813;DHT22;16707;48.106;11.548;2022-09-30T06:58:59;12.00;99.90
29813;DHT22;16707;48.106;11.548;2022-09-30T07:01:26;11.90;99.90
29813;DHT22;16707;48.106;11.548;2022-09-30T07:03:57;12.00;99.90
29813;DHT22;16707;48.106;11.548;2022-09-30T07:06:24;12.40;99.90
29813;DHT22;16707;48.106;11.548;2022-09-30T07:08:52;12.60;99.90
29813;DHT22;16707;48.106;11.548;2022-09-30T07:11:19;12.90;99.90
29813;DHT22;16707;48.106;11.548;2022-09-30T07:13:48;12.90;99.90
29813;DHT22;16707;48.106;11.548;2022-09-30T07:16:17;12.70;99.90
29813;DHT22;16707;48.106;11.548;2022-09-30T07:18:49;12.40;99.90
29813;DHT22;16707;48.106;11.548;2022-09-30T07:21:19;12.30;99.90
29813;DHT22;16707;48.106;11.548;2022-09-30T07:23:51;12.40;99.90
29813;DHT22;16707;48.106;11.548;2022-09-30T07:26:22;12.30;99.90
29813;DHT22;16707;48.106;11.548;2022-09-30T07:28:52;12.50;99.90
29813;DHT22;16707;48.106;11.548;2022-09-30T07:31:22;12.80;99.90
29813;DHT22;16707;48.106;11.548;2022-09-30T07:33:50;12.60;99.90
29813;DHT22;16707;48.106;11.548;2022-09-30T07:36:19;12.50;99.90
29813;DHT22;16707;48.106;11.548;2022-09-30T07:38:52;12.60;99.90
29813;DHT22;16707;48.106;11.548;2022-09-30T07:41:21;13.00;99.90
29813;DHT22;16707;48.106;11.548;2022-09-30T07:43:53;12.90;99.90
29813;DHT22;16707;48.106;11.548;2022-09-30T07:46:26;12.90;99.90
29813;DHT22;16707;48.106;11.548;2022-09-30T07:48:57;13.10;99.90
29813;DHT22;16707;48.106;11.548;2022-09-30T07:51:32;13.60;99.90
29813;DHT22;16707;48.106;11.548;2022-09-30T07:54:04;13.90;99.90
29813;DHT22;16707;48.106;11.548;2022-09-30T07:56:35;13.60;99.90
29813;DHT22;16707;48.106;11.548;2022-09-30T07:59:07;13.40;99.90
29813;DHT22;16707;48.106;11.548;2022-09-30T08:01:37;13.50;99.90
29813;DHT22;16707;48.106;11.548;2022-09-30T08:04:07;13.70;99.90
29813;DHT22;16707;48.106;11.548;2022-09-30T08:06:37;13.50;99.90
29813;DHT22;16707;48.106;11.548;2022-09-30T08:09:08;13.40;99.90
29813;DHT22;16707;48.106;11.548;2022-09-30T08:11:36;13.50;99.90
29813;DHT22;16707;48.106;11.548;2022-09-30T08:14:12;13.60;99.90
29813;DHT22;16707;48.106;11.548;2022-09-30T08:16:42;13.60;99.90
29813;DHT22;16707;48.106;11.548;2022-09-30T08:19:14;14.00;99.90
29813;DHT22;16707;48.106;11.548;2022-09-30T08:21:42;14.40;99.90
29813;DHT22;16707;48.106;11.548;2022-09-30T08:24:10;14.90;99.90
29813;DHT22;16707;48.106;11.548;2022-09-30T08:26:41;15.40;99.90
29813;DHT22;16707;48.106;11.548;2022-09-30T08:29:10;15.40;99.90
29813;DHT22;16707;48.106;11.548;2022-09-30T08:31:39;15.10;98.80
29813;DHT22;16707;48.106;11.548;2022-09-30T08:34:06;15.00;99.90
29813;DHT22;16707;48.106;11.548;2022-09-30T08:36:33;15.10;99.90
29813;DHT22;16707;48.106;11.548;2022-09-30T08:39:03;14.60;99.90
29813;DHT22;16707;48.106;11.548;2022-09-30T08:41:56;14.70;99.90
29813;DHT22;16707;48.106;11.548;2022-09-30T08:44:43;15.10;99.90
29813;DHT22;16707;48.106;11.548;2022-09-30T08:47:28;15.30;98.80
29813;DHT22;16707;48.106;11.548;2022-09-30T08:50:13;15.20;98.30
29813;DHT22;16707;48.106;11.548;2022-09-30T08:52:47;15.10;97.50
29813;DHT22;16707;48.106;11.548;2022-09-30T08:55:20;14.90;96.50
29813;DHT22;16707;48.106;11.548;2022-09-30T08:57:49;14.80;99.40
29813;DHT22;16707;48.106;11.548;2022-09-30T09:00:20;14.70;98.60
29813;DHT22;16707;48.106;11.548;2022-09-30T09:02:51;14.70;98.70
29813;DHT22;16707;48.106;11.548;2022-09-30T09:05:32;14.90;98.60
29813;DHT22;16707;48.106;11.548;2022-09-30T09:08:10;14.60;97.60
29813;DHT22;16707;48.106;11.548;2022-09-30T09:10:42;14.70;97.70
29813;DHT22;16707;48.106;11.548;2022-09-30T09:13:21;14.90;98.70
29813;DHT22;16707;48.106;11.548;2022-09-30T09:16:04;14.80;96.70
29813;DHT22;16707;48.106;11.548;2022-09-30T09:18:41;14.80;99.90
29813;DHT22;16707;48.106;11.548;2022-09-30T09:21:21;15.10;99.90
29813;DHT22;16707;48.106;11.548;2022-09-30T09:23:55;15.10;99.90
29813;DHT22;16707;48.106;11.548;2022-09-30T09:26:24;15.20;99.90
29813;DHT22;16707;48.106;11.548;2022-09-30T09:29:02;15.20;98.20
29813;DHT22;16707;48.106;11.548;2022-09-30T09:31:39;15.30;97.40
29813;DHT22;16707;48.106;11.548;2022-09-30T09:34:09;15.20;98.50
29813;DHT22;16707;48.106;11.548;2022-09-30T09:36:47;15.20;97.80
29813;DHT22;16707;48.106;11.548;2022-09-30T09:39:40;14.90;99.90
29813;DHT22;16707;48.106;11.548;2022-09-30T09:42:46;15.20;99.00
29813;DHT22;16707;48.106;11.548;2022-09-30T09:45:25;14.90;99.80
29813;DHT22;16707;48.106;11.548;2022-09-30T09:47:59;14.90;99.90
29813;DHT22;16707;48.106;11.548;2022-09-30T09:50:35;15.30;99.90
29813;DHT22;16707;48.106;11.548;2022-09-30T09:53:30;15.70;96.10
29813;DHT22;16707;48.106;11.548;2022-09-30T09:56:00;15.70;94.00
29813;DHT22;16707;48.106;11.548;2022-09-30T09:58:28;15.60;94.20
29813;DHT22;16707;48.106;11.548;2022-09-30T10:01:08;15.90;94.70
29813;DHT22;16707;48.106;11.548;2022-09-30T10:04:14;16.00;93.80
29813;DHT22;16707;48.106;11.548;2022-09-30T10:06:49;16.40;93.70
29813;DHT22;16707;48.106;11.548;2022-09-30T10:09:27;16.50;92.20
29813;DHT22;16707;48.106;11.548;2022-09-30T10:12:23;16.80;90.30
29813;DHT22;16707;48.106;11.548;2022-09-30T10:14:59;16.50;91.00
29813;DHT22;16707;48.106;11.548;2022-09-30T10:17:33;16.60;90.50
29813;DHT22;16707;48.106;11.548;2022-09-30T10:20:16;16.50;91.00
29813;DHT22;16707;48.106;11.548;2022-09-30T10:22:46;16.00;92.40
29813;DHT22;16707;48.106;11.548;2022-09-30T10:25:19;15.80;91.50
29813;DHT22;16707;48.106;11.548;2022-09-30T10:27:55;15.80;91.80
29813;DHT22;16707;48.106;11.548;2022-09-30T10:30:36;15.60;92.70
29813;DHT22;16707;48.106;11.548;2022-09-30T10:33:19;15.50;92.10
29813;DHT22;16707;48.106;11.548;2022-09-30T10:35:53;15.20;93.80
29813;DHT22;16707;48.106;11.548;2022-09-30T10:38:24;14.80;95.40
29813;DHT22;16707;48.106;11.548;2022-09-30T10:40:54;15.10;95.50
29813;DHT22;16707;48.106;11.548;2022-09-30T10:43:24;15.20;94.30
29813;DHT22;16707;48.106;11.548;2022-09-30T10:45:52;14.80;94.80
29813;DHT22;16707;48.106;11.548;2022-09-30T10:48:22;14.70;96.30
29813;DHT22;16707;48.106;11.548;2022-09-30T10:50:52;14.70;97.90
29813;DHT22;16707;48.106;11.548;2022-09-30T10:53:22;14.80;97.70
29813;DHT22;16707;48.106;11.548;2022-09-30T10:55:55;15.40;95.70
29813;DHT22;16707;48.106;11.548;2022-09-30T10:58:29;15.60;93.20
29813;DHT22;16707;48.106;11.548;2022-09-30T11:01:13;16.10;93.00
29813;DHT22;16707;48.106;11.548;2022-09-30T11:03:51;16.70;89.90
29813;DHT22;16707;48.106;11.548;2022-09-30T11:06:26;17.10;86.70
29813;DHT22;16707;48.106;11.548;2022-09-30T11:09:00;17.60;82.70
29813;DHT22;16707;48.106;11.548;2022-09-30T11:11:35;17.50;79.90
29813;DHT22;16707;48.106;11.548;2022-09-30T11:14:18;18.10;80.10
29813;DHT22;16707;48.106;11.548;2022-09-30T11:17:03;17.80;76.80
29813;DHT22;16707;48.106;11.548;2022-09-30T11:19:39;17.40;81.20
29813;DHT22;16707;48.106;11.548;2022-09-30T11:22:27;17.50;80.90
29813;DHT22;16707;48.106;11.548;2022-09-30T11:24:58;16.70;84.80
29813;DHT22;16707;48.106;11.548;2022-09-30T11:27:33;16.60;86.70
29813;DHT22;16707;48.106;11.548;2022-09-30T11:30:15;16.40;86.70
29813;DHT22;16707;48.106;11.548;2022-09-30T11:32:53;15.50;89.80
29813;DHT22;16707;48.106;11.548;2022-09-30T11:35:45;15.20;95.10
29813;DHT22;16707;48.106;11.548;2022-09-30T11:38:30;14.70;99.90
29813;DHT22;16707;48.106;11.548;2022-09-30T11:41:12;14.70;97.30
29813;DHT22;16707;48.106;11.548;2022-09-30T11:43:49;14.70;99.90
29813;DHT22;16707;48.106;11.548;2022-09-30T11:46:47;14.70;99.90
29813;DHT22;16707;48.106;11.548;2022-09-30T11:49:40;14.50;99.50
29813;DHT22;16707;48.106;11.548;2022-09-30T11:52:29;14.50;99.90
29813;DHT22;16707;48.106;11.548;2022-09-30T11:55:25;14.80;99.90
29813;DHT22;16707;48.106;11.548;2022-09-30T11:58:02;14.90;97.50
29813;DHT22;16707;48.106;11.548;2022-09-30T12:00:32;15.10;96.80
29813;DHT22;16707;48.106;11.548;2022-09-30T12:03:05;15.50;96.30
29813;DHT22;16707;48.106;11.548;2022-09-30T12:05:39;15.50;96.70
29813;DHT22;16707;48.106;11.548;2022-09-30T12:08:13;15.60;96.00
29813;DHT22;16707;48.106;11.548;2022-09-30T12:10:47;15.60;95.10
29813;DHT22;16707;48.106;11.548;2022-09-30T12:13:22;16.10;93.90
29813;DHT22;16707;48.106;11.548;2022-09-30T12:15:55;16.10;94.30
29813;DHT22;16707;48.106;11.548;2022-09-30T12:18:26;15.70;94.50
29813;DHT22;16707;48.106;11.548;2022-09-30T12:20:58;15.40;95.10
29813;DHT22;16707;48.106;11.548;2022-09-30T12:23:31;16.00;94.50
29813;DHT22;16707;48.106;11.548;2022-09-30T12:26:03;15.90;93.30
29813;DHT22;16707;48.106;11.548;2022-09-30T12:28:40;15.70;93.40
29813;DHT22;16707;48.106;11.548;2022-09-30T12:31:56;15.80;93.00
29813;DHT22;16707;48.106;11.548;2022-09-30T12:34:43;16.00;95.00
29813;DHT22;16707;48.106;11.548;2022-09-30T12:37:28;16.20;93.60
29813;DHT22;16707;48.106;11.548;2022-09-30T12:40:25;15.90;92.80
29813;DHT22;16707;48.106;11.548;2022-09-30T12:43:29;15.90;93.40
29813;DHT22;16707;48.106;11.548;2022-09-30T12:46:13;16.00;94.00
29813;DHT22;16707;48.106;11.548;2022-09-30T12:48:48;16.00;93.90
29813;DHT22;16707;48.106;11.548;2022-09-30T12:51:28;15.70;95.00
29813;DHT22;16707;48.106;11.548;2022-09-30T12:54:10;15.60;95.10
29813;DHT22;16707;48.106;11.548;2022-09-30T12:56:41;15.70;96.30
29813;DHT22;16707;48.106;11.548;2022-09-30T12:59:15;16.10;93.40
29813;DHT22;16707;48.106;11.548;2022-09-30T13:01:45;16.10;92.20
29813;DHT22;16707;48.106;11.548;2022-09-30T13:04:29;16.10;92.60
29813;DHT22;16707;48.106;11.548;2022-09-30T13:07:06;16.20;91.70
29813;DHT22;16707;48.106;11.548;2022-09-30T13:09:58;16.20;91.90
29813;DHT22;16707;48.106;11.548;2022-09-30T13:12:44;16.50;92.40
29813;DHT22;16707;48.106;11.548;2022-09-30T13:15:38;16.60;91.70
29813;DHT22;16707;48.106;11.548;2022-09-30T13:21:25;16.30;91.60
29813;DHT22;16707;48.106;11.548;2022-09-30T13:23:54;16.50;91.50
29813;DHT22;16707;48.106;11.548;2022-09-30T13:29:34;16.80;88.80
29813;DHT22;16707;48.106;11.548;2022-09-30T13:32:07;16.60;87.40
29813;DHT22;16707;48.106;11.548;2022-09-30T13:34:52;16.40;87.60
29813;DHT22;16707;48.106;11.548;2022-09-30T13:37:34;16.50;90.80
29813;DHT22;16707;48.106;11.548;2022-09-30T13:40:22;16.60;90.00
29813;DHT22;16707;48.106;11.548;2022-09-30T13:42:56;16.70;87.10
29813;DHT22;16707;48.106;11.548;2022-09-30T13:45:30;16.70;86.10
29813;DHT22;16707;48.106;11.548;2022-09-30T13:48:06;16.60;86.10
29813;DHT22;16707;48.106;11.548;2022-09-30T13:50:41;16.70;86.90
29813;DHT22;16707;48.106;11.548;2022-09-30T13:53:22;16.90;87.80
29813;DHT22;16707;48.106;11.548;2022-09-30T13:55:53;16.60;91.10
29813;DHT22;16707;48.106;11.548;2022-09-30T13:58:42;16.60;90.60
29813;DHT22;16707;48.106;11.548;2022-09-30T14:04:49;16.80;90.40
29813;DHT22;16707;48.106;11.548;2022-09-30T14:07:36;16.90;87.10
29813;DHT22;16707;48.106;11.548;2022-09-30T14:10:25;16.90;84.40
29813;DHT22;16707;48.106;11.548;2022-09-30T14:13:19;16.90;83.40
29813;DHT22;16707;48.106;11.548;2022-09-30T14:16:14;16.80;85.80
29813;DHT22;16707;48.106;11.548;2022-09-30T14:19:33;16.80;87.30
29813;DHT22;16707;48.106;11.548;2022-09-30T14:22:06;16.90;85.50
29813;DHT22;16707;48.106;11.548;2022-09-30T14:24:36;16.60;86.80
29813;DHT22;16707;48.106;11.548;2022-09-30T14:27:28;16.70;87.60
29813;DHT22;16707;48.106;11.548;2022-09-30T14:30:05;16.60;88.70
29813;DHT22;16707;48.106;11.548;2022-09-30T14:32:42;16.60;86.30
29813;DHT22;16707;48.106;11.548;2022-09-30T14:35:15;16.50;88.60
29813;DHT22;16707;48.106;11.548;2022-09-30T14:37:48;16.60;90.30
29813;DHT22;16707;48.106;11.548;2022-09-30T14:40:19;16.50;90.30
29813;DHT22;16707;48.106;11.548;2022-09-30T14:42:51;16.40;90.60
29813;DHT22;16707;48.106;11.548;2022-09-30T14:45:23;16.30;90.80
29813;DHT22;16707;48.106;11.548;2022-09-30T14:47:54;16.00;91.10
29813;DHT22;16707;48.106;11.548;2022-09-30T14:50:25;16.00;91.00
29813;DHT22;16707;48.106;11.548;2022-09-30T14:53:02;15.90;92.10
29813;DHT22;16707;48.106;11.548;2022-09-30T14:55:34;15.60;92.60
29813;DHT22;16707;48.106;11.548;2022-09-30T14:58:20;15.40;96.50
29813;DHT22;16707;48.106;11.548;2022-09-30T15:01:02;15.20;99.50
29813;DHT22;16707;48.106;11.548;2022-09-30T15:03:33;15.30;99.40
29813;DHT22;16707;48.106;11.548;2022-09-30T15:06:03;15.50;94.90
29813;DHT22;16707;48.106;11.548;2022-09-30T15:08:32;15.60;95.30
29813;DHT22;16707;48.106;11.548;2022-09-30T15:11:02;15.50;95.70
29813;DHT22;16707;48.106;11.548;2022-09-30T15:13:32;15.60;95.60
29813;DHT22;16707;48.106;11.548;2022-09-30T15:16:21;15.50;95.20
29813;DHT22;16707;48.106;11.548;2022-09-30T15:18:49;15.40;94.80
29813;DHT22;16707;48.106;11.548;2022-09-30T15:21:16;15.40;95.80
29813;DHT22;16707;48.106;11.548;2022-09-30T15:23:49;15.20;98.80
29813;DHT22;16707;48.106;11.548;2022-09-30T15:26:26;14.70;99.90
29813;DHT22;16707;48.106;11.548;2022-09-30T15:28:53;14.70;99.90
29813;DHT22;16707;48.106;11.548;2022-09-30T15:31:23;14.70;99.90
29813;DHT22;16707;48.106;11.548;2022-09-30T15:34:03;15.10;99.90
29813;DHT22;16707;48.106;11.548;2022-09-30T15:36:31;15.20;99.90
29813;DHT22;16707;48.106;11.548;2022-09-30T15:39:11;15.30;99.90
29813;DHT22;16707;48.106;11.548;2022-09-30T15:41:44;15.10;99.90
29813;DHT22;16707;48.106;11.548;2022-09-30T15:44:18;15.00;99.90
29813;DHT22;16707;48.106;11.548;2022-09-30T15:47:05;14.90;99.90
29813;DHT22;16707;48.106;11.548;2022-09-30T15:49:45;14.60;99.90
29813;DHT22;16707;48.106;11.548;2022-09-30T15:52:35;14.50;99.90
29813;DHT22;16707;48.106;11.548;2022-09-30T15:58:36;14.20;99.90
29813;DHT22;16707;48.106;11.548;2022-09-30T16:01:13;14.10;99.90
29813;DHT22;16707;48.106;11.548;2022-09-30T16:03:49;14.10;99.90
29813;DHT22;16707;48.106;11.548;2022-09-30T16:06:23;14.20;99.90
29813;DHT22;16707;48.106;11.548;2022-09-30T16:08:55;14.20;99.90
29813;DHT22;16707;48.106;11.548;2022-09-30T16:11:28;14.20;99.90
29813;DHT22;16707;48.106;11.548;2022-09-30T16:14:08;14.00;99.90
29813;DHT22;16707;48.106;11.548;2022-09-30T16:16:37;14.00;99.90
29813;DHT22;16707;48.106;11.548;2022-09-30T16:19:05;13.90;99.90
29813;DHT22;16707;48.106;11.548;2022-09-30T16:21:42;14.00;99.90
29813;DHT22;16707;48.106;11.548;2022-09-30T16:24:45;13.90;99.90
29813;DHT22;16707;48.106;11.548;2022-09-30T16:27:21;13.80;99.90
29813;DHT22;16707;48.106;11.548;2022-09-30T16:29:52;13.80;99.90
29813;DHT22;16707;48.106;11.548;2022-09-30T16:32:19;13.80;99.90
29813;DHT22;16707;48.106;11.548;2022-09-30T16:34:50;13.70;99.90
29813;DHT22;16707;48.106;11.548;2022-09-30T16:37:18;13.50;99.90
29813;DHT22;16707;48.106;11.548;2022-09-30T16:39:46;13.20;99.90